createdAt,value
2018-06-20T00:02:15.473Z,17.30
2018-06-20T00:04:43.055Z,17.30
2018-06-20T00:07:10.624Z,17.30
2018-06-20T00:09:38.248Z,17.20
2018-06-20T00:12:05.851Z,17.30
2018-06-20T00:14:33.410Z,17.30
2018-06-20T00:17:01.050Z,17.30
2018-06-20T00:19:28.572Z,17.30
2018-06-20T00:21:56.140Z,17.20
2018-06-20T00:24:23.716Z,17.10
2018-06-20T00:26:51.421Z,17.20
2018-06-20T00:29:19.007Z,17.20
2018-06-20T00:31:46.607Z,17.10
2018-06-20T00:34:14.160Z,17.20
2018-06-20T00:36:41.694Z,17.10
2018-06-20T00:39:10.009Z,17.10
2018-06-20T00:41:37.652Z,17.00
2018-06-20T00:44:05.580Z,17.00
2018-06-20T00:46:33.087Z,17.00
2018-06-20T00:49:00.552Z,16.80
2018-06-20T00:51:28.008Z,16.90
2018-06-20T00:53:55.539Z,16.90
2018-06-20T00:56:25.280Z,16.90
2018-06-20T00:58:52.980Z,16.90
2018-06-20T01:01:21.316Z,16.90
2018-06-20T01:03:48.924Z,16.90
2018-06-20T01:06:16.484Z,16.80
2018-06-20T01:08:43.936Z,16.90
2018-06-20T01:11:11.860Z,16.80
2018-06-20T01:13:39.288Z,16.80
2018-06-20T01:16:06.812Z,16.80
2018-06-20T01:18:34.404Z,16.80
2018-06-20T01:21:02.124Z,16.80
2018-06-20T01:23:29.548Z,16.80
2018-06-20T01:25:57.080Z,16.80
2018-06-20T01:28:24.732Z,16.70
2018-06-20T01:30:52.651Z,16.60
2018-06-20T01:33:20.811Z,16.60
2018-06-20T01:35:48.265Z,16.50
2018-06-20T01:38:15.741Z,16.60
2018-06-20T01:40:43.191Z,16.60
2018-06-20T01:43:10.760Z,16.60
2018-06-20T01:45:38.619Z,16.60
2018-06-20T01:48:06.360Z,16.50
2018-06-20T01:50:33.864Z,16.50
2018-06-20T01:53:01.295Z,16.50
2018-06-20T01:55:28.799Z,16.60
2018-06-20T01:57:56.341Z,16.60
2018-06-20T02:03:28.356Z,16.50
2018-06-20T02:05:55.856Z,16.50
2018-06-20T02:08:23.324Z,16.40
2018-06-20T02:10:50.867Z,16.30
2018-06-20T02:13:18.316Z,16.30
2018-06-20T02:15:45.781Z,16.40
2018-06-20T02:18:13.241Z,16.40
2018-06-20T02:20:40.900Z,16.40
2018-06-20T02:23:08.335Z,16.40
2018-06-20T02:25:35.796Z,16.40
2018-06-20T02:28:03.484Z,16.30
2018-06-20T02:30:30.993Z,16.30
2018-06-20T02:32:58.440Z,16.20
2018-06-20T02:35:25.928Z,16.30
2018-06-20T02:37:53.476Z,16.20
2018-06-20T02:40:20.972Z,16.20
2018-06-20T02:42:48.464Z,16.10
2018-06-20T02:45:15.884Z,16.20
2018-06-20T02:47:43.876Z,16.10
2018-06-20T02:50:12.596Z,16.00
2018-06-20T02:52:40.163Z,15.90
2018-06-20T02:55:07.592Z,15.90
2018-06-20T02:57:35.097Z,15.90
2018-06-20T03:00:02.644Z,15.90
2018-06-20T03:02:30.099Z,15.80
2018-06-20T03:04:57.791Z,15.80
2018-06-20T03:07:25.287Z,15.80
2018-06-20T03:09:53.014Z,15.80
2018-06-20T03:12:20.560Z,15.80
2018-06-20T03:14:48.087Z,15.80
2018-06-20T03:17:15.618Z,15.80
2018-06-20T03:19:43.119Z,15.80
2018-06-20T03:22:10.663Z,15.80
2018-06-20T03:24:38.139Z,15.80
2018-06-20T03:27:05.672Z,15.80
2018-06-20T03:29:33.156Z,15.90
2018-06-20T03:32:00.637Z,15.80
2018-06-20T03:34:28.200Z,15.80
2018-06-20T03:36:55.694Z,15.70
2018-06-20T03:39:23.299Z,15.70
2018-06-20T03:41:50.822Z,15.70
2018-06-20T03:44:18.272Z,15.70
2018-06-20T03:46:45.741Z,15.70
2018-06-20T03:49:13.304Z,15.70
2018-06-20T03:51:40.776Z,15.60
2018-06-20T03:54:08.216Z,15.50
2018-06-20T03:56:35.696Z,15.50
2018-06-20T03:59:03.357Z,15.50
2018-06-20T04:01:30.912Z,15.50
2018-06-20T04:03:58.368Z,15.50
2018-06-20T04:06:25.927Z,15.50
2018-06-20T04:08:53.586Z,15.60
2018-06-20T04:11:21.696Z,15.70
2018-06-20T04:13:49.132Z,15.80
2018-06-20T04:16:16.568Z,15.70
2018-06-20T04:18:44.523Z,15.70
2018-06-20T04:21:13.089Z,15.70
2018-06-20T04:23:40.601Z,15.80
2018-06-20T04:26:09.037Z,15.90
2018-06-20T04:28:36.916Z,16.00
2018-06-20T04:31:04.883Z,16.10
2018-06-20T04:33:32.877Z,16.20
2018-06-20T04:36:01.776Z,16.20
2018-06-20T04:38:29.299Z,16.40
2018-06-20T04:40:57.406Z,16.60
2018-06-20T04:43:24.883Z,16.60
2018-06-20T04:45:52.324Z,16.80
2018-06-20T04:48:19.807Z,16.90
2018-06-20T04:50:47.339Z,16.90
2018-06-20T04:53:14.881Z,17.00
2018-06-20T04:55:42.557Z,17.10
2018-06-20T04:58:10.083Z,17.10
2018-06-20T05:00:37.624Z,17.10
2018-06-20T05:03:05.562Z,17.20
2018-06-20T05:05:33.169Z,17.30
2018-06-20T05:08:00.724Z,17.30
2018-06-20T05:10:28.467Z,17.40
2018-06-20T05:12:56.035Z,17.50
2018-06-20T05:15:23.561Z,17.50
2018-06-20T05:17:51.064Z,17.60
2018-06-20T05:20:18.593Z,17.70
2018-06-20T05:22:46.071Z,17.80
2018-06-20T05:25:13.636Z,17.80
2018-06-20T05:27:41.132Z,17.90
2018-06-20T05:30:08.724Z,17.90
2018-06-20T05:32:36.452Z,18.10
2018-06-20T05:35:04.091Z,18.20
2018-06-20T05:37:31.575Z,18.30
2018-06-20T05:39:59.074Z,18.50
2018-06-20T05:42:26.639Z,18.70
2018-06-20T05:44:54.203Z,18.80
2018-06-20T05:47:21.740Z,18.80
2018-06-20T05:49:49.223Z,19.00
2018-06-20T05:52:16.726Z,19.00
2018-06-20T05:54:44.192Z,19.10
2018-06-20T05:57:11.658Z,19.20
2018-06-20T05:59:39.219Z,19.40
2018-06-20T06:02:06.834Z,19.50
2018-06-20T06:04:34.352Z,19.40
2018-06-20T06:07:02.105Z,19.50
2018-06-20T06:09:29.788Z,19.50
2018-06-20T06:11:57.248Z,19.50
2018-06-20T06:14:25.213Z,19.70
2018-06-20T06:16:53.072Z,19.80
2018-06-20T06:19:20.548Z,19.80
2018-06-20T06:21:48.015Z,19.80
2018-06-20T06:24:16.120Z,19.90
2018-06-20T06:26:43.772Z,19.90
2018-06-20T06:29:11.382Z,19.90
2018-06-20T06:31:39.213Z,19.90
2018-06-20T06:34:06.756Z,20.00
2018-06-20T06:36:34.951Z,20.00
2018-06-20T06:39:02.618Z,19.90
2018-06-20T06:41:30.124Z,20.10
2018-06-20T06:43:57.678Z,20.20
2018-06-20T06:46:25.145Z,20.30
2018-06-20T06:48:52.603Z,20.40
2018-06-20T06:51:20.088Z,20.40
2018-06-20T06:53:47.549Z,20.20
2018-06-20T06:56:15.004Z,19.40
2018-06-20T06:58:43.071Z,19.20
2018-06-20T07:01:10.616Z,19.50
2018-06-20T07:03:38.117Z,20.00
2018-06-20T07:08:32.951Z,20.30
2018-06-20T07:11:00.472Z,20.20
2018-06-20T07:13:27.899Z,20.20
2018-06-20T07:15:55.355Z,20.40
2018-06-20T07:18:22.903Z,20.50
2018-06-20T07:20:50.352Z,20.60
2018-06-20T07:23:18.256Z,20.80
2018-06-20T07:25:45.736Z,21.00
2018-06-20T07:28:13.192Z,21.00
2018-06-20T07:30:40.726Z,20.90
2018-06-20T07:33:08.182Z,20.90
2018-06-20T07:35:35.841Z,21.10
2018-06-20T07:38:03.308Z,21.30
2018-06-20T07:40:30.833Z,21.20
2018-06-20T07:42:58.400Z,21.00
2018-06-20T07:45:25.864Z,21.10
2018-06-20T07:47:53.384Z,21.30
2018-06-20T07:50:20.804Z,21.20
2018-06-20T07:52:48.336Z,21.50
2018-06-20T07:55:15.818Z,21.90
2018-06-20T07:57:43.387Z,22.20
2018-06-20T08:00:16.705Z,21.90
2018-06-20T08:03:01.771Z,21.70
2018-06-20T08:05:34.879Z,21.60
2018-06-20T08:08:08.281Z,21.50
2018-06-20T08:10:41.388Z,21.50
2018-06-20T08:13:14.476Z,21.60
2018-06-20T08:15:47.593Z,21.70
2018-06-20T08:18:20.956Z,21.90
2018-06-20T08:20:48.441Z,21.90
2018-06-20T08:23:15.900Z,21.90
2018-06-20T08:25:43.469Z,22.00
2018-06-20T08:28:10.928Z,22.10
2018-06-20T08:30:38.383Z,21.90
2018-06-20T08:33:05.812Z,21.90
2018-06-20T08:35:34.068Z,21.90
2018-06-20T08:38:01.612Z,21.90
2018-06-20T08:40:29.188Z,21.80
2018-06-20T08:42:56.775Z,21.80
2018-06-20T08:45:24.204Z,22.00
2018-06-20T08:47:52.022Z,22.00
2018-06-20T08:50:19.568Z,21.90
2018-06-20T08:52:47.008Z,22.10
2018-06-20T08:55:14.456Z,22.30
2018-06-20T08:57:41.944Z,22.40
2018-06-20T09:00:09.399Z,22.30
2018-06-20T09:02:36.853Z,22.30
2018-06-20T09:05:10.141Z,22.30
2018-06-20T09:07:43.195Z,22.60
2018-06-20T09:10:16.517Z,22.80
2018-06-20T09:12:49.844Z,22.80
2018-06-20T09:15:23.287Z,22.90
2018-06-20T09:17:56.560Z,23.10
2018-06-20T09:20:24.044Z,23.00
2018-06-20T09:22:51.507Z,22.80
2018-06-20T09:25:18.963Z,22.90
2018-06-20T09:27:46.438Z,23.00
2018-06-20T09:30:14.065Z,23.40
2018-06-20T09:32:41.533Z,23.60
2018-06-20T09:35:09.009Z,23.80
2018-06-20T09:37:36.468Z,23.80
2018-06-20T09:40:03.994Z,23.80
2018-06-20T09:42:31.452Z,23.60
2018-06-20T09:44:58.991Z,23.40
2018-06-20T09:47:26.509Z,23.40
2018-06-20T09:49:54.123Z,23.20
2018-06-20T09:52:21.599Z,23.10
2018-06-20T09:54:49.497Z,23.30
2018-06-20T09:57:17.033Z,23.70
2018-06-20T09:59:50.276Z,24.00
2018-06-20T10:02:23.537Z,24.20
2018-06-20T10:04:56.884Z,24.40
2018-06-20T10:07:29.032Z,24.30
2018-06-20T10:10:02.265Z,24.20
2018-06-20T10:12:35.535Z,24.50
2018-06-20T10:15:03.148Z,24.50
2018-06-20T10:17:30.725Z,24.50
2018-06-20T10:19:58.171Z,24.70
2018-06-20T10:22:25.725Z,25.00
2018-06-20T10:24:53.313Z,25.10
2018-06-20T10:27:20.766Z,25.20
2018-06-20T10:29:48.236Z,25.30
2018-06-20T10:32:16.021Z,25.30
2018-06-20T10:34:43.675Z,25.10
2018-06-20T10:37:11.124Z,25.10
2018-06-20T10:39:38.554Z,25.20
2018-06-20T10:42:06.061Z,25.30
2018-06-20T10:44:33.551Z,25.60
2018-06-20T10:47:06.612Z,25.70
2018-06-20T10:49:34.065Z,25.80
2018-06-20T10:52:01.513Z,25.70
2018-06-20T10:54:29.038Z,25.60
2018-06-20T10:57:01.993Z,25.50
2018-06-20T10:59:35.195Z,25.50
2018-06-20T11:02:08.436Z,25.50
2018-06-20T11:04:41.707Z,25.60
2018-06-20T11:07:14.870Z,25.70
2018-06-20T11:10:50.067Z,26.00
2018-06-20T11:13:17.723Z,26.20
2018-06-20T11:15:45.641Z,25.90
2018-06-20T11:18:13.243Z,25.60
2018-06-20T11:20:46.512Z,25.70
2018-06-20T11:23:14.033Z,25.90
2018-06-20T11:25:41.546Z,26.00
2018-06-20T11:28:11.965Z,26.00
2018-06-20T11:30:40.110Z,25.80
2018-06-20T11:33:07.725Z,25.60
2018-06-20T11:35:35.224Z,25.50
2018-06-20T11:38:02.807Z,25.70
2018-06-20T11:40:30.321Z,25.50
2018-06-20T11:42:57.921Z,25.60
2018-06-20T11:47:57.314Z,25.80
2018-06-20T11:50:24.772Z,26.10
2018-06-20T11:52:57.968Z,26.50
2018-06-20T11:55:31.253Z,26.20
2018-06-20T11:58:04.579Z,26.20
2018-06-20T12:00:37.758Z,26.30
2018-06-20T12:03:10.887Z,26.10
2018-06-20T12:05:44.125Z,25.80
2018-06-20T12:08:17.129Z,25.70
2018-06-20T12:10:50.447Z,26.10
2018-06-20T12:13:23.777Z,26.30
2018-06-20T12:15:57.296Z,26.30
2018-06-20T12:18:30.461Z,26.40
2018-06-20T12:21:03.753Z,26.40
2018-06-20T12:23:37.060Z,26.50
2018-06-20T12:26:10.244Z,26.60
2018-06-20T12:28:43.544Z,26.50
2018-06-20T12:31:16.653Z,26.70
2018-06-20T12:33:49.930Z,26.80
2018-06-20T12:36:24.656Z,26.50
2018-06-20T12:38:58.365Z,26.50
2018-06-20T12:41:31.569Z,26.40
2018-06-20T12:44:04.896Z,26.50
2018-06-20T12:46:37.485Z,26.70
2018-06-20T12:49:04.910Z,26.70
2018-06-20T12:51:32.348Z,26.60
2018-06-20T12:53:59.881Z,26.50
2018-06-20T12:56:27.375Z,26.50
2018-06-20T12:58:54.966Z,26.50
2018-06-20T13:01:22.509Z,26.60
2018-06-20T13:03:50.250Z,26.80
2018-06-20T13:06:17.761Z,26.90
2018-06-20T13:08:45.331Z,26.70
2018-06-20T13:11:12.928Z,26.60
2018-06-20T13:13:40.542Z,26.30
2018-06-20T13:16:08.069Z,26.40
2018-06-20T13:18:35.774Z,26.40
2018-06-20T13:21:03.315Z,26.70
2018-06-20T13:23:30.808Z,27.00
2018-06-20T13:25:58.348Z,27.00
2018-06-20T13:28:25.954Z,26.90
2018-06-20T13:30:59.408Z,26.90
2018-06-20T13:33:32.647Z,26.90
2018-06-20T13:37:09.498Z,26.90
2018-06-20T13:39:42.864Z,26.90
2018-06-20T13:42:14.912Z,26.80
2018-06-20T13:44:42.480Z,26.80
2018-06-20T13:47:15.689Z,26.90
2018-06-20T13:49:43.706Z,26.90
2018-06-20T13:52:11.522Z,26.80
2018-06-20T13:54:39.024Z,26.80
2018-06-20T13:57:06.577Z,26.80
2018-06-20T13:59:34.292Z,26.90
2018-06-20T14:02:01.799Z,26.90
2018-06-20T14:04:29.276Z,26.70
2018-06-20T14:06:56.784Z,26.50
2018-06-20T14:09:24.304Z,26.50
2018-06-20T14:11:51.840Z,26.30
2018-06-20T14:14:19.309Z,26.20
2018-06-20T14:16:46.848Z,26.30
2018-06-20T14:19:14.308Z,26.40
2018-06-20T14:21:42.271Z,26.50
2018-06-20T14:24:10.886Z,26.50
2018-06-20T14:26:39.777Z,26.60
2018-06-20T14:29:08.130Z,26.80
2018-06-20T14:31:41.328Z,26.90
2018-06-20T14:36:59.368Z,27.30
2018-06-20T14:39:32.834Z,27.20
2018-06-20T14:42:07.837Z,26.90
2018-06-20T14:44:35.290Z,26.90
2018-06-20T14:47:02.755Z,27.00
2018-06-20T14:49:30.275Z,27.10
2018-06-20T14:51:57.784Z,27.10
2018-06-20T14:54:25.372Z,27.20
2018-06-20T14:56:52.880Z,27.20
2018-06-20T14:59:20.477Z,27.20
2018-06-20T15:01:48.000Z,27.00
2018-06-20T15:04:15.440Z,27.00
2018-06-20T15:06:42.935Z,27.00
2018-06-20T15:09:10.461Z,26.80
2018-06-20T15:11:38.518Z,26.60
2018-06-20T15:14:06.170Z,26.80
2018-06-20T15:16:39.437Z,27.00
2018-06-20T15:19:06.945Z,27.10
2018-06-20T15:21:34.904Z,27.20
2018-06-20T15:24:02.425Z,27.20
2018-06-20T15:26:35.584Z,27.30
2018-06-20T15:29:08.798Z,27.40
2018-06-20T15:31:41.988Z,27.30
2018-06-20T15:34:15.289Z,27.30
2018-06-20T15:36:48.459Z,27.10
2018-06-20T15:39:16.117Z,26.80
2018-06-20T15:41:43.603Z,26.60
2018-06-20T15:44:11.168Z,26.70
2018-06-20T15:46:38.683Z,26.80
2018-06-20T15:49:06.192Z,26.90
2018-06-20T15:51:33.656Z,27.10
2018-06-20T15:54:01.125Z,27.00
2018-06-20T15:56:28.732Z,27.10
2018-06-20T15:58:56.488Z,27.20
2018-06-20T16:01:24.111Z,27.20
2018-06-20T16:03:51.744Z,27.10
2018-06-20T16:06:19.375Z,27.00
2018-06-20T16:08:52.565Z,27.00
2018-06-20T16:11:20.012Z,27.00
2018-06-20T16:13:47.504Z,27.10
2018-06-20T16:16:14.995Z,27.20
2018-06-20T16:18:47.173Z,27.30
2018-06-20T16:21:20.330Z,27.20
2018-06-20T16:23:53.341Z,27.30
2018-06-20T16:26:26.731Z,27.10
2018-06-20T16:28:59.868Z,27.00
2018-06-20T16:31:27.339Z,26.90
2018-06-20T16:33:54.893Z,26.80
2018-06-20T16:36:22.592Z,26.90
2018-06-20T16:38:50.185Z,26.80
2018-06-20T16:41:17.637Z,26.80
2018-06-20T16:43:45.272Z,26.90
2018-06-20T16:46:12.733Z,27.00
2018-06-20T16:48:40.191Z,26.90
2018-06-20T16:51:07.869Z,26.90
2018-06-20T16:53:35.383Z,26.80
2018-06-20T16:56:02.968Z,26.80
2018-06-20T16:58:30.547Z,26.70
2018-06-20T17:01:03.779Z,26.80
2018-06-20T17:03:31.262Z,26.80
2018-06-20T17:05:58.898Z,26.80
2018-06-20T17:08:26.400Z,26.70
2018-06-20T17:10:54.000Z,26.60
2018-06-20T17:13:27.390Z,26.70
2018-06-20T17:16:00.650Z,26.70
2018-06-20T17:18:33.944Z,26.70
2018-06-20T17:21:07.131Z,26.60
2018-06-20T17:23:40.304Z,26.60
2018-06-20T17:26:07.755Z,26.60
2018-06-20T17:31:02.890Z,26.60
2018-06-20T17:33:30.396Z,26.50
2018-06-20T17:35:57.875Z,26.50
2018-06-20T17:38:25.496Z,26.40
2018-06-20T17:40:53.022Z,26.20
2018-06-20T17:43:20.644Z,26.10
2018-06-20T17:45:48.174Z,26.10
2018-06-20T17:48:15.707Z,26.10
2018-06-20T17:50:43.312Z,26.10
2018-06-20T17:53:10.811Z,26.10
2018-06-20T17:55:38.307Z,26.00
2018-06-20T17:58:05.828Z,26.00
2018-06-20T18:00:38.056Z,26.00
2018-06-20T18:03:05.636Z,26.00
2018-06-20T18:05:39.017Z,26.00
2018-06-20T18:08:12.285Z,25.90
2018-06-20T18:11:17.165Z,25.80
2018-06-20T18:13:50.245Z,25.70
2018-06-20T18:16:23.781Z,25.80
2018-06-20T18:18:51.380Z,25.70
2018-06-20T18:21:19.795Z,25.60
2018-06-20T18:23:47.348Z,25.60
2018-06-20T18:26:14.818Z,25.60
2018-06-20T18:28:42.479Z,25.60
2018-06-20T18:31:09.995Z,25.50
2018-06-20T18:33:37.484Z,25.50
2018-06-20T18:36:05.336Z,25.40
2018-06-20T18:38:32.899Z,25.40
2018-06-20T18:41:01.180Z,25.30
2018-06-20T18:43:28.763Z,25.20
2018-06-20T18:45:56.845Z,25.20
2018-06-20T18:48:26.044Z,25.20
2018-06-20T18:50:54.034Z,25.10
2018-06-20T18:53:21.588Z,25.00
2018-06-20T18:55:49.093Z,24.90
2018-06-20T18:58:22.253Z,24.80
2018-06-20T19:00:55.490Z,24.70
2018-06-20T19:03:28.619Z,24.70
2018-06-20T19:06:02.512Z,24.60
2018-06-20T19:08:35.715Z,24.70
2018-06-20T19:11:03.272Z,24.50
2018-06-20T19:13:30.715Z,24.40
2018-06-20T19:15:58.188Z,22.70
2018-06-20T19:22:17.658Z,21.80
2018-06-20T19:24:45.156Z,21.30
2018-06-20T19:27:12.647Z,21.30
2018-06-20T19:29:40.132Z,21.70
2018-06-20T19:32:07.818Z,22.30
2018-06-20T19:34:35.397Z,22.60
2018-06-20T19:37:02.892Z,22.60
2018-06-20T19:39:36.016Z,22.70
2018-06-20T19:42:03.915Z,22.70
2018-06-20T19:44:34.573Z,22.60
2018-06-20T19:47:04.337Z,22.60
2018-06-20T19:49:31.794Z,22.50
2018-06-20T19:51:59.408Z,22.60
2018-06-20T19:54:26.896Z,22.60
2018-06-20T19:56:54.526Z,22.50
2018-06-20T19:59:22.257Z,22.50
2018-06-20T20:01:50.033Z,22.50
2018-06-20T20:04:17.574Z,22.50
2018-06-20T20:06:45.069Z,22.50
2018-06-20T20:09:13.213Z,22.40
2018-06-20T20:11:40.838Z,22.50
2018-06-20T20:14:08.449Z,22.50
2018-06-20T20:16:36.305Z,22.40
2018-06-20T20:19:03.797Z,22.40
2018-06-20T20:21:31.463Z,22.40
2018-06-20T20:23:59.004Z,22.40
2018-06-20T20:26:26.760Z,22.20
2018-06-20T20:28:54.416Z,22.10
2018-06-20T20:31:25.202Z,22.10
2018-06-20T20:33:53.402Z,22.00
2018-06-20T20:36:20.952Z,22.00
2018-06-20T20:38:49.232Z,22.00
2018-06-20T20:41:17.488Z,21.90
2018-06-20T20:43:45.008Z,21.90
2018-06-20T20:46:12.719Z,21.80
2018-06-20T20:48:40.328Z,21.80
2018-06-20T20:51:08.032Z,21.70
2018-06-20T20:53:35.503Z,21.50
2018-06-20T20:56:03.085Z,21.50
2018-06-20T20:58:30.753Z,21.50
2018-06-20T21:01:00.385Z,21.50
2018-06-20T21:03:28.063Z,21.30
2018-06-20T21:05:55.695Z,21.30
2018-06-20T21:08:23.275Z,21.20
2018-06-20T21:10:50.848Z,21.20
2018-06-20T21:13:18.716Z,21.20
2018-06-20T21:15:46.176Z,21.10
2018-06-20T21:18:13.820Z,20.80
2018-06-20T21:20:41.359Z,20.80
2018-06-20T21:25:36.930Z,20.70
2018-06-20T21:28:04.465Z,20.80
2018-06-20T21:30:32.220Z,21.00
2018-06-20T21:32:59.685Z,20.80
2018-06-20T21:35:27.320Z,20.90
2018-06-20T21:37:54.829Z,20.80
2018-06-20T21:40:22.312Z,20.80
2018-06-20T21:42:50.045Z,20.70
2018-06-20T21:45:17.673Z,20.80
2018-06-20T21:47:45.657Z,20.70
2018-06-20T21:50:13.230Z,20.70
2018-06-20T21:52:41.092Z,20.70
2018-06-20T21:55:08.571Z,20.60
2018-06-20T21:57:36.079Z,20.60
2018-06-20T22:00:06.897Z,20.50
2018-06-20T22:02:35.369Z,20.40
2018-06-20T22:05:02.907Z,20.40
2018-06-20T22:07:30.808Z,20.20
2018-06-20T22:09:58.346Z,20.10
2018-06-20T22:12:25.835Z,20.10
2018-06-20T22:14:53.356Z,20.20
2018-06-20T22:17:20.990Z,20.10
2018-06-20T22:19:48.544Z,20.30
2018-06-20T22:22:16.073Z,20.40
2018-06-20T22:24:43.869Z,20.30
2018-06-20T22:27:11.924Z,20.30
2018-06-20T22:29:39.365Z,20.20
2018-06-20T22:32:06.835Z,20.20
2018-06-20T22:34:34.319Z,20.10
2018-06-20T22:37:01.836Z,20.10
2018-06-20T22:39:29.417Z,20.00
2018-06-20T22:41:56.896Z,20.00
2018-06-20T22:44:24.368Z,19.90
2018-06-20T22:46:52.080Z,19.90
2018-06-20T22:49:19.670Z,19.90
2018-06-20T22:51:47.147Z,19.70
2018-06-20T22:54:14.619Z,19.60
2018-06-20T22:56:42.248Z,19.60
2018-06-20T22:59:09.716Z,19.30
2018-06-20T23:01:37.400Z,19.20
2018-06-20T23:04:04.924Z,19.20
2018-06-20T23:06:32.468Z,19.30
2018-06-20T23:09:00.021Z,19.40
2018-06-20T23:11:27.597Z,19.20
2018-06-20T23:13:55.093Z,19.30
2018-06-20T23:16:22.752Z,19.20
2018-06-20T23:18:50.214Z,19.30
2018-06-20T23:21:17.702Z,19.30
2018-06-20T23:23:45.152Z,19.30
2018-06-20T23:26:12.636Z,19.20
2018-06-20T23:28:40.214Z,19.30
2018-06-20T23:31:07.765Z,19.30
2018-06-20T23:33:35.198Z,19.20
2018-06-20T23:36:02.906Z,19.20
2018-06-20T23:38:30.549Z,19.10
2018-06-20T23:40:58.143Z,19.10
2018-06-20T23:43:25.588Z,19.10
2018-06-20T23:45:53.030Z,19.00
2018-06-20T23:48:20.597Z,19.00
2018-06-20T23:50:48.168Z,19.00
2018-06-20T23:53:15.615Z,18.90
2018-06-20T23:55:43.105Z,18.90
2018-06-20T23:58:10.607Z,18.90
